sensor_id;sensor_type;location;lat;lon;timestamp;P1;durP1;ratioP1;P2;durP2;ratioP2
18296;SDS011;18066;52.106;5.534;2023-06-05T00:01:45;7.43;;;3.90;;
18296;SDS011;18066;52.106;5.534;2023-06-05T00:04:11;7.83;;;3.97;;
18296;SDS011;18066;52.106;5.534;2023-06-05T00:06:40;5.63;;;3.50;;
18296;SDS011;18066;52.106;5.534;2023-06-05T00:09:07;5.17;;;4.00;;
18296;SDS011;18066;52.106;5.534;2023-06-05T00:11:34;7.13;;;4.47;;
18296;SDS011;18066;52.106;5.534;2023-06-05T00:14:01;10.10;;;4.40;;
18296;SDS011;18066;52.106;5.534;2023-06-05T00:16:29;7.43;;;4.03;;
18296;SDS011;18066;52.106;5.534;2023-06-05T00:18:57;6.63;;;4.07;;
18296;SDS011;18066;52.106;5.534;2023-06-05T00:21:25;8.37;;;4.17;;
18296;SDS011;18066;52.106;5.534;2023-06-05T00:23:53;7.20;;;4.70;;
18296;SDS011;18066;52.106;5.534;2023-06-05T00:26:20;6.67;;;4.50;;
18296;SDS011;18066;52.106;5.534;2023-06-05T00:28:47;11.87;;;4.67;;
18296;SDS011;18066;52.106;5.534;2023-06-05T00:31:14;9.33;;;4.43;;
18296;SDS011;18066;52.106;5.534;2023-06-05T00:33:49;7.87;;;4.47;;
18296;SDS011;18066;52.106;5.534;2023-06-05T00:36:19;6.80;;;4.57;;
18296;SDS011;18066;52.106;5.534;2023-06-05T00:38:49;9.20;;;4.60;;
18296;SDS011;18066;52.106;5.534;2023-06-05T00:41:17;7.83;;;4.90;;
18296;SDS011;18066;52.106;5.534;2023-06-05T00:43:47;7.20;;;3.93;;
18296;SDS011;18066;52.106;5.534;2023-06-05T00:46:17;6.90;;;4.30;;
18296;SDS011;18066;52.106;5.534;2023-06-05T00:48:47;7.90;;;4.93;;
18296;SDS011;18066;52.106;5.534;2023-06-05T00:51:20;8.27;;;4.63;;
18296;SDS011;18066;52.106;5.534;2023-06-05T00:53:55;6.97;;;4.60;;
18296;SDS011;18066;52.106;5.534;2023-06-05T00:56:22;8.73;;;5.13;;
18296;SDS011;18066;52.106;5.534;2023-06-05T00:58:53;7.97;;;5.07;;
18296;SDS011;18066;52.106;5.534;2023-06-05T01:01:24;7.47;;;5.27;;
18296;SDS011;18066;52.106;5.534;2023-06-05T01:04:04;5.80;;;4.70;;
18296;SDS011;18066;52.106;5.534;2023-06-05T01:06:36;6.70;;;4.63;;
18296;SDS011;18066;52.106;5.534;2023-06-05T01:09:09;12.17;;;5.60;;
18296;SDS011;18066;52.106;5.534;2023-06-05T01:11:46;9.00;;;4.87;;
18296;SDS011;18066;52.106;5.534;2023-06-05T01:14:31;9.10;;;5.33;;
18296;SDS011;18066;52.106;5.534;2023-06-05T01:17:23;7.20;;;5.27;;
18296;SDS011;18066;52.106;5.534;2023-06-05T01:19:53;7.63;;;5.10;;
18296;SDS011;18066;52.106;5.534;2023-06-05T01:22:25;8.70;;;5.10;;
18296;SDS011;18066;52.106;5.534;2023-06-05T01:24:53;6.40;;;4.70;;
18296;SDS011;18066;52.106;5.534;2023-06-05T01:27:23;6.10;;;4.83;;
18296;SDS011;18066;52.106;5.534;2023-06-05T01:29:56;10.27;;;5.23;;
18296;SDS011;18066;52.106;5.534;2023-06-05T01:32:31;6.33;;;5.00;;
18296;SDS011;18066;52.106;5.534;2023-06-05T01:35:07;5.87;;;4.53;;
18296;SDS011;18066;52.106;5.534;2023-06-05T01:38:06;10.63;;;5.10;;
18296;SDS011;18066;52.106;5.534;2023-06-05T01:43:25;9.47;;;5.43;;
18296;SDS011;18066;52.106;5.534;2023-06-05T01:46:11;10.20;;;5.70;;
18296;SDS011;18066;52.106;5.534;2023-06-05T01:48:47;8.87;;;5.17;;
18296;SDS011;18066;52.106;5.534;2023-06-05T01:51:15;9.07;;;5.87;;
18296;SDS011;18066;52.106;5.534;2023-06-05T01:53:42;6.20;;;4.90;;
18296;SDS011;18066;52.106;5.534;2023-06-05T01:56:15;6.63;;;5.17;;
18296;SDS011;18066;52.106;5.534;2023-06-05T01:58:44;10.70;;;5.90;;
18296;SDS011;18066;52.106;5.534;2023-06-05T02:01:12;10.47;;;5.60;;
18296;SDS011;18066;52.106;5.534;2023-06-05T02:03:41;9.57;;;5.93;;
18296;SDS011;18066;52.106;5.534;2023-06-05T02:06:12;6.73;;;5.20;;
18296;SDS011;18066;52.106;5.534;2023-06-05T02:08:40;9.87;;;5.83;;
18296;SDS011;18066;52.106;5.534;2023-06-05T02:11:10;9.03;;;5.37;;
18296;SDS011;18066;52.106;5.534;2023-06-05T02:13:39;7.90;;;5.80;;
18296;SDS011;18066;52.106;5.534;2023-06-05T02:16:09;11.53;;;6.10;;
18296;SDS011;18066;52.106;5.534;2023-06-05T02:18:36;9.63;;;5.83;;
18296;SDS011;18066;52.106;5.534;2023-06-05T02:21:04;8.87;;;5.67;;
18296;SDS011;18066;52.106;5.534;2023-06-05T02:23:31;9.00;;;5.23;;
18296;SDS011;18066;52.106;5.534;2023-06-05T02:25:58;11.17;;;6.17;;
18296;SDS011;18066;52.106;5.534;2023-06-05T02:28:25;9.93;;;5.97;;
18296;SDS011;18066;52.106;5.534;2023-06-05T02:30:55;12.37;;;6.30;;
18296;SDS011;18066;52.106;5.534;2023-06-05T02:33:28;9.47;;;5.97;;
18296;SDS011;18066;52.106;5.534;2023-06-05T02:36:07;8.07;;;5.67;;
18296;SDS011;18066;52.106;5.534;2023-06-05T02:38:47;14.50;;;6.30;;
18296;SDS011;18066;52.106;5.534;2023-06-05T02:41:21;9.13;;;5.87;;
18296;SDS011;18066;52.106;5.534;2023-06-05T02:43:51;12.17;;;5.73;;
18296;SDS011;18066;52.106;5.534;2023-06-05T02:46:35;10.83;;;6.40;;
18296;SDS011;18066;52.106;5.534;2023-06-05T02:49:27;12.10;;;6.27;;
18296;SDS011;18066;52.106;5.534;2023-06-05T02:51:54;10.77;;;6.10;;
18296;SDS011;18066;52.106;5.534;2023-06-05T02:54:21;13.60;;;6.10;;
18296;SDS011;18066;52.106;5.534;2023-06-05T02:56:49;11.10;;;6.83;;
18296;SDS011;18066;52.106;5.534;2023-06-05T02:59:16;8.87;;;6.83;;
18296;SDS011;18066;52.106;5.534;2023-06-05T03:01:44;11.60;;;7.23;;
18296;SDS011;18066;52.106;5.534;2023-06-05T03:04:12;10.23;;;6.60;;
18296;SDS011;18066;52.106;5.534;2023-06-05T03:06:46;8.47;;;6.13;;
18296;SDS011;18066;52.106;5.534;2023-06-05T03:09:13;10.20;;;6.50;;
18296;SDS011;18066;52.106;5.534;2023-06-05T03:11:41;8.93;;;6.77;;
18296;SDS011;18066;52.106;5.534;2023-06-05T03:14:08;8.23;;;6.63;;
18296;SDS011;18066;52.106;5.534;2023-06-05T03:16:35;10.50;;;6.80;;
18296;SDS011;18066;52.106;5.534;2023-06-05T03:19:08;7.70;;;6.17;;
18296;SDS011;18066;52.106;5.534;2023-06-05T03:21:35;12.63;;;7.00;;
18296;SDS011;18066;52.106;5.534;2023-06-05T03:24:03;9.60;;;6.83;;
18296;SDS011;18066;52.106;5.534;2023-06-05T03:26:30;16.07;;;7.60;;
18296;SDS011;18066;52.106;5.534;2023-06-05T03:28:59;12.37;;;6.73;;
18296;SDS011;18066;52.106;5.534;2023-06-05T03:31:26;12.77;;;6.73;;
18296;SDS011;18066;52.106;5.534;2023-06-05T03:33:55;9.57;;;7.03;;
18296;SDS011;18066;52.106;5.534;2023-06-05T03:36:28;10.37;;;7.07;;
18296;SDS011;18066;52.106;5.534;2023-06-05T03:39:04;13.37;;;7.33;;
18296;SDS011;18066;52.106;5.534;2023-06-05T03:41:53;9.70;;;7.10;;
18296;SDS011;18066;52.106;5.534;2023-06-05T03:44:33;11.47;;;7.50;;
18296;SDS011;18066;52.106;5.534;2023-06-05T03:47:17;9.50;;;6.53;;
18296;SDS011;18066;52.106;5.534;2023-06-05T03:50:04;10.13;;;7.70;;
18296;SDS011;18066;52.106;5.534;2023-06-05T03:52:33;11.23;;;7.07;;
18296;SDS011;18066;52.106;5.534;2023-06-05T03:55:03;9.47;;;7.50;;
18296;SDS011;18066;52.106;5.534;2023-06-05T03:57:31;10.03;;;7.17;;
18296;SDS011;18066;52.106;5.534;2023-06-05T03:59:58;11.50;;;6.87;;
18296;SDS011;18066;52.106;5.534;2023-06-05T04:02:25;11.17;;;7.27;;
18296;SDS011;18066;52.106;5.534;2023-06-05T04:04:56;12.03;;;7.63;;
18296;SDS011;18066;52.106;5.534;2023-06-05T04:07:40;12.17;;;7.17;;
18296;SDS011;18066;52.106;5.534;2023-06-05T04:10:08;8.43;;;7.00;;
18296;SDS011;18066;52.106;5.534;2023-06-05T04:12:38;12.50;;;6.77;;
18296;SDS011;18066;52.106;5.534;2023-06-05T04:15:46;11.73;;;6.63;;
18296;SDS011;18066;52.106;5.534;2023-06-05T04:18:49;14.50;;;7.07;;
18296;SDS011;18066;52.106;5.534;2023-06-05T04:21:16;14.40;;;7.83;;
18296;SDS011;18066;52.106;5.534;2023-06-05T04:23:44;9.67;;;7.60;;
18296;SDS011;18066;52.106;5.534;2023-06-05T04:26:12;14.97;;;7.87;;
18296;SDS011;18066;52.106;5.534;2023-06-05T04:28:42;13.70;;;7.60;;
18296;SDS011;18066;52.106;5.534;2023-06-05T04:31:15;13.63;;;7.57;;
18296;SDS011;18066;52.106;5.534;2023-06-05T04:33:42;13.73;;;7.73;;
18296;SDS011;18066;52.106;5.534;2023-06-05T04:36:09;12.00;;;7.37;;
18296;SDS011;18066;52.106;5.534;2023-06-05T04:38:36;13.43;;;8.10;;
18296;SDS011;18066;52.106;5.534;2023-06-05T04:41:06;10.13;;;8.07;;
18296;SDS011;18066;52.106;5.534;2023-06-05T04:43:33;13.93;;;8.33;;
18296;SDS011;18066;52.106;5.534;2023-06-05T04:46:00;11.33;;;7.50;;
18296;SDS011;18066;52.106;5.534;2023-06-05T04:48:27;13.50;;;7.40;;
18296;SDS011;18066;52.106;5.534;2023-06-05T04:50:55;13.57;;;8.43;;
18296;SDS011;18066;52.106;5.534;2023-06-05T04:53:23;13.43;;;7.97;;
18296;SDS011;18066;52.106;5.534;2023-06-05T04:55:53;12.33;;;7.77;;
18296;SDS011;18066;52.106;5.534;2023-06-05T04:58:23;12.97;;;8.07;;
18296;SDS011;18066;52.106;5.534;2023-06-05T05:00:49;16.63;;;8.43;;
18296;SDS011;18066;52.106;5.534;2023-06-05T05:03:16;14.17;;;8.27;;
18296;SDS011;18066;52.106;5.534;2023-06-05T05:05:43;13.67;;;7.20;;
18296;SDS011;18066;52.106;5.534;2023-06-05T05:08:11;13.83;;;7.33;;
18296;SDS011;18066;52.106;5.534;2023-06-05T05:10:38;11.90;;;7.37;;
18296;SDS011;18066;52.106;5.534;2023-06-05T05:13:05;9.50;;;7.03;;
18296;SDS011;18066;52.106;5.534;2023-06-05T05:15:33;14.87;;;7.10;;
18296;SDS011;18066;52.106;5.534;2023-06-05T05:18:00;14.03;;;7.43;;
18296;SDS011;18066;52.106;5.534;2023-06-05T05:20:28;12.73;;;7.17;;
18296;SDS011;18066;52.106;5.534;2023-06-05T05:22:57;11.23;;;7.30;;
18296;SDS011;18066;52.106;5.534;2023-06-05T05:25:25;13.13;;;6.67;;
18296;SDS011;18066;52.106;5.534;2023-06-05T05:27:52;11.63;;;6.83;;
18296;SDS011;18066;52.106;5.534;2023-06-05T05:30:20;10.90;;;6.93;;
18296;SDS011;18066;52.106;5.534;2023-06-05T05:32:48;11.80;;;6.87;;
18296;SDS011;18066;52.106;5.534;2023-06-05T05:35:15;13.27;;;7.40;;
18296;SDS011;18066;52.106;5.534;2023-06-05T05:37:45;12.23;;;7.37;;
18296;SDS011;18066;52.106;5.534;2023-06-05T05:40:12;15.60;;;8.20;;
18296;SDS011;18066;52.106;5.534;2023-06-05T05:42:39;12.50;;;7.10;;
18296;SDS011;18066;52.106;5.534;2023-06-05T05:45:07;12.23;;;7.67;;
18296;SDS011;18066;52.106;5.534;2023-06-05T05:47:35;15.63;;;7.43;;
18296;SDS011;18066;52.106;5.534;2023-06-05T05:50:04;10.40;;;7.37;;
18296;SDS011;18066;52.106;5.534;2023-06-05T05:55:11;11.80;;;7.40;;
18296;SDS011;18066;52.106;5.534;2023-06-05T05:57:53;14.73;;;6.73;;
18296;SDS011;18066;52.106;5.534;2023-06-05T06:00:30;18.43;;;8.33;;
18296;SDS011;18066;52.106;5.534;2023-06-05T06:02:59;14.40;;;8.10;;
18296;SDS011;18066;52.106;5.534;2023-06-05T06:05:28;11.27;;;7.53;;
18296;SDS011;18066;52.106;5.534;2023-06-05T06:07:55;13.37;;;7.63;;
18296;SDS011;18066;52.106;5.534;2023-06-05T06:10:23;16.20;;;8.27;;
18296;SDS011;18066;52.106;5.534;2023-06-05T06:12:51;10.70;;;7.37;;
18296;SDS011;18066;52.106;5.534;2023-06-05T06:15:18;11.47;;;8.10;;
18296;SDS011;18066;52.106;5.534;2023-06-05T06:17:45;13.00;;;7.90;;
18296;SDS011;18066;52.106;5.534;2023-06-05T06:20:12;13.13;;;7.63;;
18296;SDS011;18066;52.106;5.534;2023-06-05T06:22:42;12.20;;;7.23;;
18296;SDS011;18066;52.106;5.534;2023-06-05T06:25:10;11.57;;;7.30;;
18296;SDS011;18066;52.106;5.534;2023-06-05T06:27:39;11.80;;;6.60;;
18296;SDS011;18066;52.106;5.534;2023-06-05T06:30:07;10.13;;;6.67;;
18296;SDS011;18066;52.106;5.534;2023-06-05T06:32:35;14.20;;;7.70;;
18296;SDS011;18066;52.106;5.534;2023-06-05T06:35:02;13.47;;;7.83;;
18296;SDS011;18066;52.106;5.534;2023-06-05T06:37:31;9.90;;;7.07;;
18296;SDS011;18066;52.106;5.534;2023-06-05T06:40:00;10.53;;;7.20;;
18296;SDS011;18066;52.106;5.534;2023-06-05T06:42:27;12.13;;;8.63;;
18296;SDS011;18066;52.106;5.534;2023-06-05T06:44:53;8.73;;;6.63;;
18296;SDS011;18066;52.106;5.534;2023-06-05T06:47:22;15.40;;;7.60;;
18296;SDS011;18066;52.106;5.534;2023-06-05T06:49:50;10.93;;;7.37;;
18296;SDS011;18066;52.106;5.534;2023-06-05T06:52:17;13.63;;;6.30;;
18296;SDS011;18066;52.106;5.534;2023-06-05T06:54:45;10.03;;;7.17;;
18296;SDS011;18066;52.106;5.534;2023-06-05T06:57:13;10.93;;;6.17;;
18296;SDS011;18066;52.106;5.534;2023-06-05T06:59:40;9.73;;;6.30;;
18296;SDS011;18066;52.106;5.534;2023-06-05T07:02:07;11.07;;;6.30;;
18296;SDS011;18066;52.106;5.534;2023-06-05T07:04:36;12.87;;;6.43;;
18296;SDS011;18066;52.106;5.534;2023-06-05T07:07:03;10.00;;;5.80;;
18296;SDS011;18066;52.106;5.534;2023-06-05T07:09:31;11.83;;;6.30;;
18296;SDS011;18066;52.106;5.534;2023-06-05T07:11:58;9.07;;;6.10;;
18296;SDS011;18066;52.106;5.534;2023-06-05T07:14:31;11.17;;;6.27;;
18296;SDS011;18066;52.106;5.534;2023-06-05T07:16:59;8.73;;;5.40;;
18296;SDS011;18066;52.106;5.534;2023-06-05T07:19:26;9.77;;;5.73;;
18296;SDS011;18066;52.106;5.534;2023-06-05T07:21:54;10.17;;;5.73;;
18296;SDS011;18066;52.106;5.534;2023-06-05T07:24:22;9.73;;;5.43;;
18296;SDS011;18066;52.106;5.534;2023-06-05T07:26:51;9.43;;;5.63;;
18296;SDS011;18066;52.106;5.534;2023-06-05T07:29:18;7.97;;;5.68;;
18296;SDS011;18066;52.106;5.534;2023-06-05T07:31:47;8.20;;;5.23;;
18296;SDS011;18066;52.106;5.534;2023-06-05T07:34:14;6.63;;;4.83;;
18296;SDS011;18066;52.106;5.534;2023-06-05T07:36:44;9.38;;;5.43;;
18296;SDS011;18066;52.106;5.534;2023-06-05T07:39:12;10.07;;;5.28;;
18296;SDS011;18066;52.106;5.534;2023-06-05T07:41:39;9.67;;;5.50;;
18296;SDS011;18066;52.106;5.534;2023-06-05T07:44:07;9.73;;;5.82;;
18296;SDS011;18066;52.106;5.534;2023-06-05T07:46:35;8.05;;;5.60;;
18296;SDS011;18066;52.106;5.534;2023-06-05T07:49:03;7.22;;;4.68;;
18296;SDS011;18066;52.106;5.534;2023-06-05T07:51:30;7.50;;;4.60;;
18296;SDS011;18066;52.106;5.534;2023-06-05T07:54:00;7.65;;;5.60;;
18296;SDS011;18066;52.106;5.534;2023-06-05T07:56:28;9.93;;;6.00;;
18296;SDS011;18066;52.106;5.534;2023-06-05T07:58:56;8.35;;;5.40;;
18296;SDS011;18066;52.106;5.534;2023-06-05T08:01:23;11.75;;;6.28;;
18296;SDS011;18066;52.106;5.534;2023-06-05T08:03:50;7.85;;;5.43;;
18296;SDS011;18066;52.106;5.534;2023-06-05T08:06:19;8.30;;;5.75;;
18296;SDS011;18066;52.106;5.534;2023-06-05T08:08:46;12.18;;;6.63;;
18296;SDS011;18066;52.106;5.534;2023-06-05T08:11:13;9.50;;;6.45;;
18296;SDS011;18066;52.106;5.534;2023-06-05T08:13:40;8.85;;;6.05;;
18296;SDS011;18066;52.106;5.534;2023-06-05T08:16:06;9.85;;;6.50;;
18296;SDS011;18066;52.106;5.534;2023-06-05T08:18:33;8.57;;;6.63;;
18296;SDS011;18066;52.106;5.534;2023-06-05T08:21:00;9.35;;;6.20;;
18296;SDS011;18066;52.106;5.534;2023-06-05T08:23:29;8.77;;;6.38;;
18296;SDS011;18066;52.106;5.534;2023-06-05T08:25:56;10.40;;;6.78;;
18296;SDS011;18066;52.106;5.534;2023-06-05T08:28:23;10.25;;;6.25;;
18296;SDS011;18066;52.106;5.534;2023-06-05T08:30:49;9.90;;;6.05;;
18296;SDS011;18066;52.106;5.534;2023-06-05T08:33:17;12.27;;;6.50;;
18296;SDS011;18066;52.106;5.534;2023-06-05T08:35:44;9.93;;;5.88;;
18296;SDS011;18066;52.106;5.534;2023-06-05T08:38:11;10.45;;;5.93;;
18296;SDS011;18066;52.106;5.534;2023-06-05T08:40:40;9.90;;;6.07;;
18296;SDS011;18066;52.106;5.534;2023-06-05T08:43:10;10.93;;;6.50;;
18296;SDS011;18066;52.106;5.534;2023-06-05T08:45:37;10.05;;;6.70;;
18296;SDS011;18066;52.106;5.534;2023-06-05T08:48:04;11.00;;;6.43;;
18296;SDS011;18066;52.106;5.534;2023-06-05T08:50:33;8.02;;;5.82;;
18296;SDS011;18066;52.106;5.534;2023-06-05T08:53:03;8.90;;;6.63;;
18296;SDS011;18066;52.106;5.534;2023-06-05T08:55:30;10.48;;;5.93;;
18296;SDS011;18066;52.106;5.534;2023-06-05T08:58:00;9.88;;;6.63;;
18296;SDS011;18066;52.106;5.534;2023-06-05T09:00:28;6.88;;;5.13;;
18296;SDS011;18066;52.106;5.534;2023-06-05T09:02:56;9.32;;;5.57;;
18296;SDS011;18066;52.106;5.534;2023-06-05T09:05:24;8.65;;;6.43;;
18296;SDS011;18066;52.106;5.534;2023-06-05T09:07:51;8.35;;;5.40;;
18296;SDS011;18066;52.106;5.534;2023-06-05T09:10:21;8.45;;;5.70;;
18296;SDS011;18066;52.106;5.534;2023-06-05T09:12:53;7.55;;;5.75;;
18296;SDS011;18066;52.106;5.534;2023-06-05T09:15:23;7.20;;;5.97;;
18296;SDS011;18066;52.106;5.534;2023-06-05T09:18:03;10.85;;;6.38;;
18296;SDS011;18066;52.106;5.534;2023-06-05T09:20:33;8.98;;;6.57;;
18296;SDS011;18066;52.106;5.534;2023-06-05T09:23:01;9.68;;;5.90;;
18296;SDS011;18066;52.106;5.534;2023-06-05T09:25:43;8.07;;;6.25;;
18296;SDS011;18066;52.106;5.534;2023-06-05T09:28:13;8.88;;;6.00;;
18296;SDS011;18066;52.106;5.534;2023-06-05T09:30:55;7.07;;;6.30;;
18296;SDS011;18066;52.106;5.534;2023-06-05T09:33:23;7.72;;;6.38;;
18296;SDS011;18066;52.106;5.534;2023-06-05T09:36:01;9.05;;;6.20;;
18296;SDS011;18066;52.106;5.534;2023-06-05T09:38:29;10.07;;;6.68;;
18296;SDS011;18066;52.106;5.534;2023-06-05T09:41:00;11.57;;;6.53;;
18296;SDS011;18066;52.106;5.534;2023-06-05T09:43:28;9.25;;;6.35;;
18296;SDS011;18066;52.106;5.534;2023-06-05T09:45:57;7.93;;;6.53;;
18296;SDS011;18066;52.106;5.534;2023-06-05T09:48:23;12.65;;;5.95;;
18296;SDS011;18066;52.106;5.534;2023-06-05T09:50:52;6.85;;;6.05;;
18296;SDS011;18066;52.106;5.534;2023-06-05T09:53:19;7.82;;;5.80;;
18296;SDS011;18066;52.106;5.534;2023-06-05T09:55:47;8.35;;;6.35;;
18296;SDS011;18066;52.106;5.534;2023-06-05T09:58:14;6.85;;;5.70;;
18296;SDS011;18066;52.106;5.534;2023-06-05T10:00:42;9.75;;;6.32;;
18296;SDS011;18066;52.106;5.534;2023-06-05T10:03:12;8.00;;;6.15;;
18296;SDS011;18066;52.106;5.534;2023-06-05T10:05:42;9.15;;;6.13;;
18296;SDS011;18066;52.106;5.534;2023-06-05T10:08:10;7.82;;;5.97;;
18296;SDS011;18066;52.106;5.534;2023-06-05T10:10:38;8.75;;;5.78;;
18296;SDS011;18066;52.106;5.534;2023-06-05T10:13:05;9.40;;;5.80;;
18296;SDS011;18066;52.106;5.534;2023-06-05T10:15:32;8.20;;;6.03;;
18296;SDS011;18066;52.106;5.534;2023-06-05T10:18:02;8.52;;;6.15;;
18296;SDS011;18066;52.106;5.534;2023-06-05T10:20:32;9.60;;;5.60;;
18296;SDS011;18066;52.106;5.534;2023-06-05T10:23:01;8.10;;;5.70;;
18296;SDS011;18066;52.106;5.534;2023-06-05T10:25:28;10.43;;;5.53;;
18296;SDS011;18066;52.106;5.534;2023-06-05T10:28:02;7.75;;;6.30;;
18296;SDS011;18066;52.106;5.534;2023-06-05T10:30:47;7.68;;;6.10;;
18296;SDS011;18066;52.106;5.534;2023-06-05T10:33:43;7.25;;;5.55;;
18296;SDS011;18066;52.106;5.534;2023-06-05T10:36:28;8.70;;;5.75;;
18296;SDS011;18066;52.106;5.534;2023-06-05T10:39:08;7.20;;;5.68;;
18296;SDS011;18066;52.106;5.534;2023-06-05T10:41:36;6.55;;;5.20;;
18296;SDS011;18066;52.106;5.534;2023-06-05T10:44:03;11.80;;;6.10;;
18296;SDS011;18066;52.106;5.534;2023-06-05T10:46:31;8.13;;;5.10;;
18296;SDS011;18066;52.106;5.534;2023-06-05T10:49:05;9.45;;;5.53;;
18296;SDS011;18066;52.106;5.534;2023-06-05T10:51:38;7.90;;;4.97;;
18296;SDS011;18066;52.106;5.534;2023-06-05T10:54:09;8.57;;;5.10;;
18296;SDS011;18066;52.106;5.534;2023-06-05T10:56:53;9.18;;;5.35;;
18296;SDS011;18066;52.106;5.534;2023-06-05T10:59:31;6.28;;;4.70;;
18296;SDS011;18066;52.106;5.534;2023-06-05T11:05:07;7.78;;;5.28;;
18296;SDS011;18066;52.106;5.534;2023-06-05T11:07:39;6.28;;;5.35;;
18296;SDS011;18066;52.106;5.534;2023-06-05T11:10:09;11.77;;;5.30;;
18296;SDS011;18066;52.106;5.534;2023-06-05T11:13:00;6.82;;;5.28;;
18296;SDS011;18066;52.106;5.534;2023-06-05T11:15:37;8.98;;;5.10;;
18296;SDS011;18066;52.106;5.534;2023-06-05T11:20:52;8.13;;;4.95;;
18296;SDS011;18066;52.106;5.534;2023-06-05T11:23:21;6.63;;;4.78;;
18296;SDS011;18066;52.106;5.534;2023-06-05T11:25:52;7.45;;;4.78;;
18296;SDS011;18066;52.106;5.534;2023-06-05T11:28:37;8.85;;;4.40;;
18296;SDS011;18066;52.106;5.534;2023-06-05T11:31:06;5.53;;;4.47;;
18296;SDS011;18066;52.106;5.534;2023-06-05T11:33:33;7.18;;;4.65;;
18296;SDS011;18066;52.106;5.534;2023-06-05T11:36:00;7.28;;;4.20;;
18296;SDS011;18066;52.106;5.534;2023-06-05T11:38:29;6.88;;;4.30;;
18296;SDS011;18066;52.106;5.534;2023-06-05T11:40:56;4.53;;;3.85;;
18296;SDS011;18066;52.106;5.534;2023-06-05T11:43:23;7.95;;;4.00;;
18296;SDS011;18066;52.106;5.534;2023-06-05T11:45:51;6.90;;;3.95;;
18296;SDS011;18066;52.106;5.534;2023-06-05T11:48:19;6.65;;;4.18;;
18296;SDS011;18066;52.106;5.534;2023-06-05T11:50:53;9.40;;;4.70;;
18296;SDS011;18066;52.106;5.534;2023-06-05T11:53:22;5.93;;;4.18;;
18296;SDS011;18066;52.106;5.534;2023-06-05T11:55:50;7.43;;;4.55;;
18296;SDS011;18066;52.106;5.534;2023-06-05T11:58:32;5.22;;;3.85;;
18296;SDS011;18066;52.106;5.534;2023-06-05T12:01:04;5.32;;;3.65;;
18296;SDS011;18066;52.106;5.534;2023-06-05T12:03:32;6.07;;;3.80;;
18296;SDS011;18066;52.106;5.534;2023-06-05T12:06:01;10.90;;;4.00;;
18296;SDS011;18066;52.106;5.534;2023-06-05T12:08:28;4.53;;;3.50;;
18296;SDS011;18066;52.106;5.534;2023-06-05T12:10:59;6.30;;;4.25;;
18296;SDS011;18066;52.106;5.534;2023-06-05T12:13:45;6.07;;;3.58;;
18296;SDS011;18066;52.106;5.534;2023-06-05T12:16:13;7.25;;;3.80;;
18296;SDS011;18066;52.106;5.534;2023-06-05T12:18:41;6.60;;;4.10;;
18296;SDS011;18066;52.106;5.534;2023-06-05T12:21:18;5.13;;;3.80;;
18296;SDS011;18066;52.106;5.534;2023-06-05T12:23:46;4.60;;;3.60;;
18296;SDS011;18066;52.106;5.534;2023-06-05T12:26:15;5.18;;;3.42;;
18296;SDS011;18066;52.106;5.534;2023-06-05T12:28:43;5.55;;;3.70;;
18296;SDS011;18066;52.106;5.534;2023-06-05T12:34:04;4.07;;;2.97;;
18296;SDS011;18066;52.106;5.534;2023-06-05T12:36:37;4.78;;;3.55;;
18296;SDS011;18066;52.106;5.534;2023-06-05T12:39:05;4.50;;;3.47;;
18296;SDS011;18066;52.106;5.534;2023-06-05T12:41:35;9.05;;;3.72;;
18296;SDS011;18066;52.106;5.534;2023-06-05T12:44:02;4.72;;;3.40;;
18296;SDS011;18066;52.106;5.534;2023-06-05T12:46:30;5.45;;;3.05;;
18296;SDS011;18066;52.106;5.534;2023-06-05T12:48:57;8.75;;;3.92;;
18296;SDS011;18066;52.106;5.534;2023-06-05T12:51:24;6.93;;;4.20;;
18296;SDS011;18066;52.106;5.534;2023-06-05T12:53:52;6.10;;;4.00;;
18296;SDS011;18066;52.106;5.534;2023-06-05T12:56:19;6.68;;;3.85;;
18296;SDS011;18066;52.106;5.534;2023-06-05T12:58:51;9.07;;;3.50;;
18296;SDS011;18066;52.106;5.534;2023-06-05T13:01:19;5.78;;;4.00;;
18296;SDS011;18066;52.106;5.534;2023-06-05T13:03:46;5.35;;;3.42;;
18296;SDS011;18066;52.106;5.534;2023-06-05T13:06:13;10.15;;;4.05;;
18296;SDS011;18066;52.106;5.534;2023-06-05T13:08:40;6.20;;;3.63;;
18296;SDS011;18066;52.106;5.534;2023-06-05T13:11:07;8.15;;;3.80;;
18296;SDS011;18066;52.106;5.534;2023-06-05T13:13:35;7.63;;;4.22;;
18296;SDS011;18066;52.106;5.534;2023-06-05T13:16:04;5.18;;;4.25;;
18296;SDS011;18066;52.106;5.534;2023-06-05T13:18:32;4.65;;;3.22;;
18296;SDS011;18066;52.106;5.534;2023-06-05T13:21:00;8.25;;;3.70;;
18296;SDS011;18066;52.106;5.534;2023-06-05T13:23:27;5.82;;;3.67;;
18296;SDS011;18066;52.106;5.534;2023-06-05T13:25:54;6.50;;;3.42;;
18296;SDS011;18066;52.106;5.534;2023-06-05T13:28:21;4.13;;;3.45;;
18296;SDS011;18066;52.106;5.534;2023-06-05T13:30:48;6.70;;;3.70;;
18296;SDS011;18066;52.106;5.534;2023-06-05T13:33:16;6.38;;;3.65;;
18296;SDS011;18066;52.106;5.534;2023-06-05T13:35:43;6.95;;;3.55;;
18296;SDS011;18066;52.106;5.534;2023-06-05T13:38:10;4.25;;;3.85;;
18296;SDS011;18066;52.106;5.534;2023-06-05T13:40:37;4.07;;;3.65;;
18296;SDS011;18066;52.106;5.534;2023-06-05T13:43:03;11.45;;;4.50;;
18296;SDS011;18066;52.106;5.534;2023-06-05T13:45:30;5.57;;;4.10;;
18296;SDS011;18066;52.106;5.534;2023-06-05T13:47:57;8.38;;;4.50;;
18296;SDS011;18066;52.106;5.534;2023-06-05T13:50:25;7.82;;;4.40;;
18296;SDS011;18066;52.106;5.534;2023-06-05T13:52:52;7.75;;;4.22;;
18296;SDS011;18066;52.106;5.534;2023-06-05T13:55:19;7.10;;;4.35;;
18296;SDS011;18066;52.106;5.534;2023-06-05T13:57:46;7.35;;;4.45;;
18296;SDS011;18066;52.106;5.534;2023-06-05T14:00:13;6.05;;;4.35;;
18296;SDS011;18066;52.106;5.534;2023-06-05T14:02:40;7.25;;;4.40;;
18296;SDS011;18066;52.106;5.534;2023-06-05T14:05:07;9.43;;;4.25;;
18296;SDS011;18066;52.106;5.534;2023-06-05T14:07:37;10.80;;;4.70;;
18296;SDS011;18066;52.106;5.534;2023-06-05T14:10:05;4.85;;;4.35;;
18296;SDS011;18066;52.106;5.534;2023-06-05T14:12:32;6.88;;;4.50;;
18296;SDS011;18066;52.106;5.534;2023-06-05T14:14:59;6.68;;;3.92;;
18296;SDS011;18066;52.106;5.534;2023-06-05T14:17:26;5.85;;;4.78;;
18296;SDS011;18066;52.106;5.534;2023-06-05T14:19:53;5.60;;;4.70;;
18296;SDS011;18066;52.106;5.534;2023-06-05T14:22:20;8.20;;;4.32;;
18296;SDS011;18066;52.106;5.534;2023-06-05T14:24:48;4.65;;;3.80;;
18296;SDS011;18066;52.106;5.534;2023-06-05T14:27:15;6.32;;;4.45;;
18296;SDS011;18066;52.106;5.534;2023-06-05T14:29:43;4.15;;;3.75;;
18296;SDS011;18066;52.106;5.534;2023-06-05T14:32:10;5.35;;;4.13;;
18296;SDS011;18066;52.106;5.534;2023-06-05T14:34:37;7.10;;;4.80;;
18296;SDS011;18066;52.106;5.534;2023-06-05T14:37:04;5.75;;;4.60;;
18296;SDS011;18066;52.106;5.534;2023-06-05T14:39:31;6.80;;;4.53;;
18296;SDS011;18066;52.106;5.534;2023-06-05T14:41:59;7.50;;;5.05;;
18296;SDS011;18066;52.106;5.534;2023-06-05T14:44:26;6.10;;;4.28;;
18296;SDS011;18066;52.106;5.534;2023-06-05T14:46:53;7.07;;;4.25;;
18296;SDS011;18066;52.106;5.534;2023-06-05T14:49:21;8.57;;;5.07;;
18296;SDS011;18066;52.106;5.534;2023-06-05T14:51:49;7.13;;;4.30;;
18296;SDS011;18066;52.106;5.534;2023-06-05T14:54:15;7.38;;;4.38;;
18296;SDS011;18066;52.106;5.534;2023-06-05T14:56:42;7.55;;;3.90;;
18296;SDS011;18066;52.106;5.534;2023-06-05T14:59:12;9.38;;;4.38;;
18296;SDS011;18066;52.106;5.534;2023-06-05T15:01:40;5.45;;;3.85;;
18296;SDS011;18066;52.106;5.534;2023-06-05T15:04:07;8.35;;;3.58;;
18296;SDS011;18066;52.106;5.534;2023-06-05T15:06:33;9.23;;;3.75;;
18296;SDS011;18066;52.106;5.534;2023-06-05T15:09:00;6.30;;;3.70;;
18296;SDS011;18066;52.106;5.534;2023-06-05T15:11:28;5.78;;;3.13;;
18296;SDS011;18066;52.106;5.534;2023-06-05T15:13:55;5.07;;;3.97;;